Map

Track Data

SID SEASON NUMBER BASIN SUBBASIN NAME ISO_TIME NATURE LAT LON WMO_WIND WMO_PRES WMO_AGENCY TRACK_TYPE DIST2LAND LANDFALL IFLAG USA_AGENCY USA_ATCF_ID USA_LAT USA_LON USA_RECORD USA_STATUS USA_WIND USA_PRES USA_SSHS USA_R34_NE USA_R34_SE USA_R34_SW USA_R34_NW USA_R50_NE USA_R50_SE USA_R50_SW USA_R50_NW USA_R64_NE USA_R64_SE USA_R64_SW USA_R64_NW USA_POCI USA_ROCI USA_RMW USA_EYE TOKYO_LAT TOKYO_LON TOKYO_GRADE TOKYO_WIND TOKYO_PRES TOKYO_R50_DIR TOKYO_R50_LONG TOKYO_R50_SHORT TOKYO_R30_DIR TOKYO_R30_LONG TOKYO_R30_SHORT TOKYO_LAND CMA_LAT CMA_LON CMA_CAT CMA_WIND CMA_PRES HKO_LAT HKO_LON HKO_CAT HKO_WIND HKO_PRES NEWDELHI_LAT NEWDELHI_LON NEWDELHI_GRADE NEWDELHI_WIND NEWDELHI_PRES NEWDELHI_CI NEWDELHI_DP NEWDELHI_POCI REUNION_LAT REUNION_LON REUNION_TYPE REUNION_WIND REUNION_PRES REUNION_TNUM REUNION_CI REUNION_RMW REUNION_R34_NE REUNION_R34_SE REUNION_R34_SW REUNION_R34_NW REUNION_R50_NE REUNION_R50_SE REUNION_R50_SW REUNION_R50_NW REUNION_R64_NE REUNION_R64_SE REUNION_R64_SW REUNION_R64_NW BOM_LAT BOM_LON BOM_TYPE BOM_WIND BOM_PRES BOM_TNUM BOM_CI BOM_RMW BOM_R34_NE BOM_R34_SE BOM_R34_SW BOM_R34_NW BOM_R50_NE BOM_R50_SE BOM_R50_SW BOM_R50_NW BOM_R64_NE BOM_R64_SE BOM_R64_SW BOM_R64_NW BOM_ROCI BOM_POCI BOM_EYE BOM_POS_METHOD BOM_PRES_METHOD NADI_LAT NADI_LON NADI_CAT NADI_WIND NADI_PRES WELLINGTON_LAT WELLINGTON_LON WELLINGTON_WIND WELLINGTON_PRES DS824_LAT DS824_LON DS824_STAGE DS824_WIND DS824_PRES TD9636_LAT TD9636_LON TD9636_STAGE TD9636_WIND TD9636_PRES TD9635_LAT TD9635_LON TD9635_WIND TD9635_PRES TD9635_ROCI NEUMANN_LAT NEUMANN_LON NEUMANN_CLASS NEUMANN_WIND NEUMANN_PRES MLC_LAT MLC_LON MLC_CLASS MLC_WIND MLC_PRES USA_GUST BOM_GUST BOM_GUST_PER REUNION_GUST REUNION_GUST_PER USA_SEAHGT USA_SEARAD_NE USA_SEARAD_SE USA_SEARAD_SW USA_SEARAD_NW STORM_SPEED STORM_DIR
1948262N18281 1948 63 NA CS NOT_NAMED 1948-09-18 06:00:00 TS 18.2000 -79.2000 40 hurdat_atl main 84 84 O_____________ hurdat_atl AL081948 18.2000 -79.2000 TS 40 0 6 268
1948262N18281 1948 63 NA CS NOT_NAMED 1948-09-18 09:00:00 TS 18.1926 -79.4950 main 116 116 P_____________ AL081948 18.1926 -79.4950 TS 45 0 6 270
1948262N18281 1948 63 NA CS NOT_NAMED 1948-09-18 12:00:00 TS 18.2000 -79.8000 50 hurdat_atl main 147 147 O_____________ hurdat_atl AL081948 18.2000 -79.8000 TS 50 0 6 274
1948262N18281 1948 63 NA CS NOT_NAMED 1948-09-18 15:00:00 TS 18.2350 -80.1150 main 179 179 P_____________ AL081948 18.2350 -80.1150 TS 55 0 6 280
1948262N18281 1948 63 NA CS NOT_NAMED 1948-09-18 18:00:00 TS 18.3000 -80.4000 60 994 hurdat_atl main 211 211 O_____________ hurdat_atl AL081948 18.3000 -80.4000 TS 60 994 0 5 287
1948262N18281 1948 63 NA CS NOT_NAMED 1948-09-18 21:00:00 TS 18.3849 -80.6225 main 233 233 P_____________ AL081948 18.3849 -80.6225 TS 65 1 4 298
1948262N18281 1948 63 NA CS NOT_NAMED 1948-09-19 00:00:00 TS 18.5000 -80.8000 70 hurdat_atl main 255 255 O_____________ hurdat_atl AL081948 18.5000 -80.8000 HU 70 1 4 309
1948262N18281 1948 63 NA CS NOT_NAMED 1948-09-19 03:00:00 TS 18.6349 -80.9501 main 277 277 P_____________ AL081948 18.6349 -80.9501 HU 75 1 4 317
1948262N18281 1948 63 NA CS NOT_NAMED 1948-09-19 06:00:00 TS 18.8000 -81.1000 80 hurdat_atl main 292 292 O_____________ hurdat_atl AL081948 18.8000 -81.1000 HU 80 1 5 318
1948262N18281 1948 63 NA CS NOT_NAMED 1948-09-19 09:00:00 TS 18.9925 -81.2925 main 310 280 P_____________ AL081948 18.9925 -81.2925 HU 85 2 6 317
1948262N18281 1948 63 NA CS NOT_NAMED 1948-09-19 12:00:00 TS 19.2000 -81.5000 90 hurdat_atl main 280 251 O_____________ hurdat_atl AL081948 19.2000 -81.5000 HU 90 2 6 316
1948262N18281 1948 63 NA CS NOT_NAMED 1948-09-19 15:00:00 TS 19.4000 -81.7075 main 251 222 P_____________ AL081948 19.4000 -81.7075 HU 97 3 6 317
1948262N18281 1948 63 NA CS NOT_NAMED 1948-09-19 18:00:00 TS 19.6000 -81.9000 105 951 hurdat_atl main 222 193 O_____________ hurdat_atl AL081948 19.6000 -81.9000 HU 105 951 3 5 319
1948262N18281 1948 63 NA CS NOT_NAMED 1948-09-19 21:00:00 TS 19.7925 -82.0725 main 193 168 P_____________ AL081948 19.7925 -82.0725 HU 107 3 5 325
1948262N18281 1948 63 NA CS NOT_NAMED 1948-09-20 00:00:00 TS 20.0000 -82.2000 110 hurdat_atl main 168 143 O_____________ hurdat_atl AL081948 20.0000 -82.2000 HU 110 3 5 336
1948262N18281 1948 63 NA CS NOT_NAMED 1948-09-20 03:00:00 TS 20.2275 -82.2725 main 143 113 P_____________ AL081948 20.2275 -82.2725 HU 110 3 5 349
1948262N18281 1948 63 NA CS NOT_NAMED 1948-09-20 06:00:00 TS 20.5000 -82.3000 110 hurdat_atl main 113 84 O_____________ hurdat_atl AL081948 20.5000 -82.3000 HU 110 3 6 356
1948262N18281 1948 63 NA CS NOT_NAMED 1948-09-20 09:00:00 TS 20.8350 -82.3075 main 84 49 P_____________ AL081948 20.8350 -82.3075 HU 110 3 7 0
1948262N18281 1948 63 NA CS NOT_NAMED 1948-09-20 12:00:00 TS 21.2000 -82.3000 110 hurdat_atl main 49 23 O_____________ hurdat_atl AL081948 21.2000 -82.3000 HU 110 3 7 359
1948262N18281 1948 63 NA CS NOT_NAMED 1948-09-20 15:00:00 TS 21.5591 -82.3272 main 20 20 P_____________ AL081948 21.5591 -82.3272 HU 110 3 7 0
1948262N18281 1948 63 NA CS NOT_NAMED 1948-09-20 18:00:00 TS 21.9000 -82.3000 110 hurdat_atl main 38 15 O_____________ hurdat_atl AL081948 21.9000 -82.3000 HU 110 3 7 16
1948262N18281 1948 63 NA CS NOT_NAMED 1948-09-20 21:00:00 TS 22.1817 -82.1353 main 15 10 P_____________ AL081948 22.1817 -82.1353 HU 110 3 7 25
1948262N18281 1948 63 NA CS NOT_NAMED 1948-09-20 22:00:00 TS 22.3000 -82.1000 110 hurdat_atl main 10 0 O_____________ hurdat_atl AL081948 22.3000 -82.1000 L HU 110 3 8 6
1948262N18281 1948 63 NA CS NOT_NAMED 1948-09-21 00:00:00 TS 22.6000 -82.1000 110 hurdat_atl main 11 0 O_____________ hurdat_atl AL081948 22.6000 -82.1000 HU 110 3 8 12
1948262N18281 1948 63 NA CS NOT_NAMED 1948-09-21 01:00:00 TS 22.7000 -82.0000 110 hurdat_atl main 0 0 O_____________ hurdat_atl AL081948 22.7000 -82.0000 L HU 110 3 7 28
1948262N18281 1948 63 NA NA NOT_NAMED 1948-09-21 03:00:00 TS 22.9265 -81.9062 main 0 0 P_____________ AL081948 22.9265 -81.9062 HU 105 3 7 8
1948262N18281 1948 63 NA NA NOT_NAMED 1948-09-21 06:00:00 TS 23.3000 -81.9000 100 hurdat_atl main 22 22 O_____________ hurdat_atl AL081948 23.3000 -81.9000 HU 100 3 7 7
1948262N18281 1948 63 NA NA NOT_NAMED 1948-09-21 09:00:00 TS 23.6500 -81.8000 main 67 67 P_____________ AL081948 23.6500 -81.8000 HU 102 3 7 15
1948262N18281 1948 63 NA NA NOT_NAMED 1948-09-21 12:00:00 TS 24.0000 -81.7000 105 hurdat_atl main 100 98 O_____________ hurdat_atl AL081948 24.0000 -81.7000 HU 105 3 7 7
1948262N18281 1948 63 NA NA NOT_NAMED 1948-09-21 15:00:00 TS 24.3734 -81.6935 main 98 75 P_____________ AL081948 24.3734 -81.6935 HU 105 3 7 8
1948262N18281 1948 63 NA NA NOT_NAMED 1948-09-21 17:00:00 TS 24.6000 -81.6000 105 955 hurdat_atl main 75 60 O_____________ hurdat_atl AL081948 24.6000 -81.6000 L HU 105 955 3 7 28
1948262N18281 1948 63 NA NA NOT_NAMED 1948-09-21 18:00:00 TS 24.7000 -81.5000 105 955 hurdat_atl main 60 30 O_____________ hurdat_atl AL081948 24.7000 -81.5000 HU 105 955 3 7 23
1948262N18281 1948 63 NA GM NOT_NAMED 1948-09-21 21:00:00 TS 25.0513 -81.3849 main 23 20 P_____________ AL081948 25.0513 -81.3849 HU 110 950 3 7 7
1948262N18281 1948 63 NA GM NOT_NAMED 1948-09-22 00:00:00 TS 25.4000 -81.4000 115 hurdat_atl main 22 20 I_____________ hurdat_atl AL081948 25.4000 -81.4000 HU 115 946 4 5 0
1948262N18281 1948 63 NA GM NOT_NAMED 1948-09-22 03:00:00 TS 25.5631 -81.3971 main 15 0 P_____________ AL081948 25.5631 -81.3971 HU 115 942 4 5 12
1948262N18281 1948 63 NA NA NOT_NAMED 1948-09-22 05:00:00 TS 25.8000 -81.3000 115 940 hurdat_atl main 0 0 O_____________ hurdat_atl AL081948 25.8000 -81.3000 L HU 115 940 4 9 22
1948262N18281 1948 63 NA NA NOT_NAMED 1948-09-22 06:00:00 TS 26.0000 -81.2000 115 940 hurdat_atl main 0 0 O_____________ hurdat_atl AL081948 26.0000 -81.2000 HU 115 940 4 9 28
1948262N18281 1948 63 NA NA NOT_NAMED 1948-09-22 09:00:00 TS 26.3263 -80.9904 main 0 0 P_____________ AL081948 26.3263 -80.9904 HU 100 946 3 6 36
1948262N18281 1948 63 NA NA NOT_NAMED 1948-09-22 12:00:00 TS 26.5000 -80.8000 85 hurdat_atl main 0 0 I_____________ hurdat_atl AL081948 26.5000 -80.8000 HU 85 952 2 7 37
1948262N18281 1948 63 NA NA NOT_NAMED 1948-09-22 15:00:00 TS 26.8922 -80.5099 main 0 0 P_____________ AL081948 26.8922 -80.5099 HU 82 958 1 10 38
1948262N18281 1948 63 NA NA NOT_NAMED 1948-09-22 18:00:00 TS 27.3000 -80.1000 80 965 hurdat_atl main 14 14 O_____________ hurdat_atl AL081948 27.3000 -80.1000 HU 80 965 1 11 50
1948262N18281 1948 63 NA NA NOT_NAMED 1948-09-22 21:00:00 TS 27.6150 -79.5447 main 81 81 P_____________ AL081948 27.6151 -79.5447 HU 80 1 12 61
1948262N18281 1948 63 NA NA NOT_NAMED 1948-09-23 00:00:00 TS 27.9000 -78.9000 80 hurdat_atl main 148 148 O_____________ hurdat_atl AL081948 27.9000 -78.9000 HU 80 1 12 64
1948262N18281 1948 63 NA NA NOT_NAMED 1948-09-23 03:00:00 TS 28.1616 -78.3008 main 215 215 P_____________ AL081948 28.1616 -78.3008 HU 82 1 13 62
1948262N18281 1948 63 NA NA NOT_NAMED 1948-09-23 06:00:00 TS 28.5000 -77.6000 85 hurdat_atl main 283 283 O_____________ hurdat_atl AL081948 28.5000 -77.6000 HU 85 2 16 59
1948262N18281 1948 63 NA NA NOT_NAMED 1948-09-23 09:00:00 TS 28.9899 -76.7094 main 374 374 P_____________ AL081948 28.9899 -76.7094 HU 87 2 20 56
1948262N18281 1948 63 NA NA NOT_NAMED 1948-09-23 12:00:00 TS 29.6000 -75.7000 90 hurdat_atl main 481 481 O_____________ hurdat_atl AL081948 29.6000 -75.7000 HU 90 2 22 55
1948262N18281 1948 63 NA NA NOT_NAMED 1948-09-23 15:00:00 TS 30.2323 -74.6556 main 516 488 P_____________ AL081948 30.2323 -74.6556 HU 90 2 23 52
1948262N18281 1948 63 NA NA NOT_NAMED 1948-09-23 18:00:00 TS 31.0000 -73.6000 90 hurdat_atl main 493 470 O_____________ hurdat_atl AL081948 31.0000 -73.6000 HU 90 2 25 46
1948262N18281 1948 63 NA NA NOT_NAMED 1948-09-23 21:00:00 TS 31.9464 -72.5985 main 477 469 P_____________ AL081948 31.9464 -72.5985 HU 87 2 26 40
1948262N18281 1948 63 NA NA NOT_NAMED 1948-09-24 00:00:00 TS 33.0000 -71.6000 85 hurdat_atl main 474 468 O_____________ hurdat_atl AL081948 33.0000 -71.6000 HU 85 2 27 39
1948262N18281 1948 63 NA NA NOT_NAMED 1948-09-24 03:00:00 TS 34.0483 -70.5918 main 488 488 P_____________ AL081948 34.0483 -70.5918 HU 80 1 27 40
1948262N18281 1948 63 NA NA NOT_NAMED 1948-09-24 06:00:00 ET 35.1000 -69.5000 75 hurdat_atl main 547 547 O_____________ hurdat_atl AL081948 35.1000 -69.5000 EX 75 -4 27 41
1948262N18281 1948 63 NA NA NOT_NAMED 1948-09-24 09:00:00 ET 36.0852 -68.3989 main 633 579 P_____________ AL081948 36.0852 -68.3989 EX 70 -4 29 46
1948262N18281 1948 63 NA NA NOT_NAMED 1948-09-24 12:00:00 ET 37.1000 -66.9000 65 hurdat_atl main 576 568 O_____________ hurdat_atl AL081948 37.1000 -66.9000 EX 65 -4 37 55
1948262N18281 1948 63 NA NA NOT_NAMED 1948-09-24 15:00:00 ET 38.1911 -64.5943 main 592 538 P_____________ AL081948 38.1911 -64.5943 EX 62 -4 44 60
1948262N18281 1948 63 NA NA NOT_NAMED 1948-09-24 18:00:00 ET 39.3000 -62.0000 60 hurdat_atl main 541 533 O_____________ hurdat_atl AL081948 39.3000 -62.0000 EX 60 -4 44 59
1948262N18281 1948 63 NA NA NOT_NAMED 1948-09-24 21:00:00 ET 40.4229 -59.7290 main 539 498 P_____________ AL081948 40.4229 -59.7290 EX 57 -4 41 57
1948262N18281 1948 63 NA NA NOT_NAMED 1948-09-25 00:00:00 ET 41.5000 -57.5000 55 hurdat_atl main 503 485 O_____________ hurdat_atl AL081948 41.5000 -57.5000 EX 55 -4 40 59
1948262N18281 1948 63 NA NA NOT_NAMED 1948-09-25 03:00:00 ET 42.4655 -55.1243 main 470 367 P_____________ AL081948 42.4655 -55.1243 EX 52 -4 39 63
1948262N18281 1948 63 NA NA NOT_NAMED 1948-09-25 06:00:00 ET 43.3000 -52.8000 50 hurdat_atl main 368 341 O_____________ hurdat_atl AL081948 43.3000 -52.8000 EX 50 -4 35 65
1948262N18281 1948 63 NA NA NOT_NAMED 1948-09-25 09:00:00 ET 43.9709 -50.7024 main 348 348 P_____________ AL081948 43.9709 -50.7024 EX 47 -4 33 67
1948262N18281 1948 63 NA NA NOT_NAMED 1948-09-25 12:00:00 ET 44.6000 -48.6000 45 hurdat_atl main 418 418 O_____________ hurdat_atl AL081948 44.6000 -48.6000 EX 45 -4 35 68
1948262N18281 1948 63 NA NA NOT_NAMED 1948-09-25 15:00:00 ET 45.2841 -46.1836 main 546 546 P_____________ AL081948 45.2841 -46.1836 EX 45 -4 37 68
1948262N18281 1948 63 NA NA NOT_NAMED 1948-09-25 18:00:00 ET 46.0000 -43.7000 45 hurdat_atl main 695 695 O_____________ hurdat_atl AL081948 46.0000 -43.7000 EX 45 -4 37 67
1948262N18281 1948 63 NA NA NOT_NAMED 1948-09-25 21:00:00 ET 46.7491 -41.3251 main 855 855 P_____________ AL081948 46.7491 -41.3251 EX 45 -4 35 65
1948262N18281 1948 63 NA NA NOT_NAMED 1948-09-26 00:00:00 ET 47.5000 -39.0000 45 hurdat_atl main 1015 O_____________ hurdat_atl AL081948 47.5000 -39.0000 EX 45 -4 35 64

About IBTrACS Database

This database is a web-friendly format of International Best Track Archive for Climate Stewardship (IBTrACS), a global best track data archive curated by NOAA dating back to 1842.

Updated: 2021-12-03